createdAt,value
2019-02-28T00:01:46.340Z,26.10
2019-02-28T00:04:15.542Z,28.00
2019-02-28T00:06:45.128Z,26.40
2019-02-28T00:09:14.321Z,27.47
2019-02-28T00:11:43.514Z,24.70
2019-02-28T00:14:12.538Z,27.37
2019-02-28T00:16:41.735Z,29.30
2019-02-28T00:19:10.625Z,29.67
2019-02-28T00:21:40.433Z,28.57
2019-02-28T00:24:10.353Z,30.97
2019-02-28T00:26:39.260Z,30.97
2019-02-28T00:29:09.494Z,31.17
2019-02-28T00:31:38.593Z,30.77
2019-02-28T00:34:07.654Z,31.53
2019-02-28T00:36:36.438Z,31.17
2019-02-28T00:39:05.713Z,32.13
2019-02-28T00:41:36.266Z,32.03
2019-02-28T00:44:05.054Z,31.93
2019-02-28T00:46:34.150Z,30.70
2019-02-28T00:49:03.142Z,32.50
2019-02-28T00:51:32.145Z,31.57
2019-02-28T00:54:00.937Z,32.37
2019-02-28T00:56:29.810Z,30.87
2019-02-28T00:59:00.459Z,32.63
2019-02-28T01:01:29.208Z,32.03
2019-02-28T01:03:58.203Z,32.77
2019-02-28T01:06:28.139Z,33.10
2019-02-28T01:08:57.240Z,32.47
2019-02-28T01:11:26.122Z,31.80
2019-02-28T01:13:55.112Z,31.47
2019-02-28T01:16:24.027Z,32.07
2019-02-28T01:18:53.922Z,32.80
2019-02-28T01:21:24.018Z,32.53
2019-02-28T01:23:53.421Z,32.57
2019-02-28T01:26:22.019Z,32.80
2019-02-28T01:28:51.087Z,32.00
2019-02-28T01:31:20.738Z,32.73
2019-02-28T01:33:49.617Z,31.53
2019-02-28T01:36:18.299Z,32.53
2019-02-28T01:38:47.246Z,33.30
2019-02-28T01:41:16.251Z,31.83
2019-02-28T01:43:44.966Z,33.07
2019-02-28T01:46:14.416Z,32.47
2019-02-28T01:48:44.387Z,33.83
2019-02-28T01:51:13.480Z,34.57
2019-02-28T01:53:42.473Z,36.43
2019-02-28T01:56:11.393Z,35.30
2019-02-28T01:58:40.152Z,35.23
2019-02-28T02:01:08.940Z,36.97
2019-02-28T02:03:40.647Z,35.67
2019-02-28T02:06:08.025Z,36.87
2019-02-28T02:08:37.806Z,36.10
2019-02-28T02:11:08.289Z,36.83
2019-02-28T02:13:37.499Z,38.10
2019-02-28T02:16:06.681Z,37.27
2019-02-28T02:18:35.776Z,37.90
2019-02-28T02:21:04.566Z,37.70
2019-02-28T02:23:33.658Z,37.67
2019-02-28T02:26:02.959Z,37.70
2019-02-28T02:28:33.078Z,38.37
2019-02-28T02:31:01.770Z,36.17
2019-02-28T02:33:30.755Z,36.63
2019-02-28T02:35:59.750Z,36.40
2019-02-28T02:38:28.953Z,37.33
2019-02-28T02:41:00.585Z,36.27
2019-02-28T02:43:28.570Z,37.00
2019-02-28T02:45:57.472Z,35.27
2019-02-28T02:48:26.553Z,35.57
2019-02-28T02:50:55.647Z,35.13
2019-02-28T02:53:24.434Z,36.93
2019-02-28T02:55:53.222Z,36.23
2019-02-28T02:58:26.889Z,34.40
2019-02-28T03:00:52.947Z,36.23
2019-02-28T03:03:21.942Z,35.17
2019-02-28T03:05:50.832Z,36.33
2019-02-28T03:08:19.924Z,35.23
2019-02-28T03:10:51.870Z,34.47
2019-02-28T03:13:19.757Z,36.20
2019-02-28T03:15:48.954Z,35.60
2019-02-28T03:18:20.469Z,33.70
2019-02-28T03:20:48.266Z,35.70
2019-02-28T03:23:17.160Z,35.53
2019-02-28T03:25:46.151Z,34.93
2019-02-28T03:28:15.357Z,34.63
2019-02-28T03:30:44.368Z,35.07
2019-02-28T03:33:23.945Z,35.63
2019-02-28T03:35:44.802Z,33.47
2019-02-28T03:38:13.678Z,35.63
2019-02-28T03:40:42.411Z,34.87
2019-02-28T03:43:11.319Z,34.33
2019-02-28T03:45:40.040Z,35.83
2019-02-28T03:48:09.233Z,35.40
2019-02-28T03:50:38.123Z,36.70
2019-02-28T03:53:07.116Z,34.43
2019-02-28T03:55:40.292Z,34.47
2019-02-28T03:58:06.844Z,33.50
2019-02-28T04:00:35.903Z,33.17
2019-02-28T04:03:04.919Z,33.48
2019-02-28T04:05:38.900Z,29.73
2019-02-28T04:08:07.479Z,31.45
2019-02-28T04:10:36.467Z,26.43
2019-02-28T04:13:05.206Z,26.67
2019-02-28T04:15:34.191Z,24.73
2019-02-28T04:18:06.615Z,24.53
2019-02-28T04:20:37.405Z,24.63
2019-02-28T04:23:04.148Z,22.27
2019-02-28T04:27:06.503Z,23.87
2019-02-28T04:29:31.553Z,22.73
2019-02-28T04:32:00.229Z,21.95
2019-02-28T04:34:29.878Z,21.93
2019-02-28T04:36:58.673Z,22.00
2019-02-28T04:39:31.788Z,21.87
2019-02-28T04:42:05.037Z,22.23
2019-02-28T04:44:33.518Z,22.17
2019-02-28T04:47:03.373Z,22.27
2019-02-28T04:49:32.551Z,22.70
2019-02-28T04:52:01.415Z,23.23
2019-02-28T04:54:30.057Z,22.43
2019-02-28T04:56:58.824Z,23.10
2019-02-28T04:59:27.441Z,21.13
2019-02-28T05:01:56.072Z,22.30
2019-02-28T05:04:24.805Z,22.73
2019-02-28T05:06:55.307Z,23.10
2019-02-28T05:09:42.129Z,24.63
2019-02-28T05:12:24.828Z,25.50
2019-02-28T05:15:07.854Z,26.23
2019-02-28T05:21:16.498Z,31.03
2019-02-28T05:23:45.762Z,32.83
2019-02-28T05:26:14.962Z,30.57
2019-02-28T05:28:43.542Z,28.60
2019-02-28T05:31:12.248Z,29.77
2019-02-28T05:33:42.007Z,29.83
2019-02-28T05:36:12.081Z,31.60
2019-02-28T05:38:40.745Z,34.33
2019-02-28T05:41:12.112Z,34.50
2019-02-28T05:43:41.013Z,38.60
2019-02-28T05:46:09.892Z,38.63
2019-02-28T05:48:38.729Z,42.70
2019-02-28T05:51:08.309Z,41.93
2019-02-28T05:53:36.794Z,41.10
2019-02-28T05:56:05.604Z,43.13
2019-02-28T05:58:34.111Z,42.23
2019-02-28T06:01:02.763Z,42.83
2019-02-28T06:03:31.464Z,43.20
2019-02-28T06:06:00.146Z,41.07
2019-02-28T06:08:28.996Z,39.67
2019-02-28T06:11:00.634Z,39.10
2019-02-28T06:13:27.945Z,39.20
2019-02-28T06:15:56.693Z,40.60
2019-02-28T06:18:27.007Z,39.27
2019-02-28T06:20:55.617Z,39.35
2019-02-28T06:23:24.304Z,38.13
2019-02-28T06:25:55.783Z,35.43
2019-02-28T06:28:23.440Z,36.63
2019-02-28T06:30:52.214Z,35.77
2019-02-28T06:33:21.279Z,40.53
2019-02-28T06:35:53.540Z,46.07
2019-02-28T06:38:21.561Z,39.63
2019-02-28T06:40:50.312Z,38.77
2019-02-28T06:43:19.615Z,37.73
2019-02-28T06:45:48.603Z,36.77
2019-02-28T06:48:17.139Z,39.10
2019-02-28T06:50:45.787Z,37.33
2019-02-28T06:53:14.412Z,38.87
2019-02-28T06:55:48.777Z,37.97
2019-02-28T06:58:17.752Z,37.87
2019-02-28T07:00:47.403Z,38.97
2019-02-28T07:03:16.744Z,40.43
2019-02-28T07:05:45.151Z,37.23
2019-02-28T07:08:13.795Z,38.43
2019-02-28T07:10:44.926Z,38.20
2019-02-28T07:13:13.865Z,40.98
2019-02-28T07:15:42.535Z,40.73
2019-02-28T07:18:11.303Z,39.77
2019-02-28T07:20:40.060Z,40.08
2019-02-28T07:23:08.869Z,37.57
2019-02-28T07:25:37.529Z,37.07
2019-02-28T07:28:06.215Z,35.97
2019-02-28T07:30:34.858Z,37.17
2019-02-28T07:33:09.510Z,34.83
2019-02-28T07:35:36.763Z,38.27
2019-02-28T07:38:04.413Z,38.60
2019-02-28T07:40:33.319Z,37.33
2019-02-28T07:43:01.996Z,33.73
2019-02-28T07:45:33.121Z,35.50
2019-02-28T07:48:01.204Z,38.25
2019-02-28T07:50:29.884Z,34.23
2019-02-28T07:52:58.602Z,34.67
2019-02-28T07:55:30.349Z,33.27
2019-02-28T07:57:57.821Z,34.17
2019-02-28T08:00:26.340Z,33.73
2019-02-28T08:02:54.847Z,36.33
2019-02-28T08:05:29.903Z,36.37
2019-02-28T08:07:54.182Z,31.30
2019-02-28T08:10:22.818Z,28.87
2019-02-28T08:12:51.547Z,28.07
2019-02-28T08:15:22.548Z,26.07
2019-02-28T08:17:51.703Z,26.50
2019-02-28T08:20:20.763Z,26.77
2019-02-28T08:22:49.988Z,27.97
2019-02-28T08:25:18.634Z,28.37
2019-02-28T08:27:47.420Z,26.37
2019-02-28T08:30:19.419Z,26.53
2019-02-28T08:32:48.927Z,26.90
2019-02-28T08:35:18.163Z,25.50
2019-02-28T08:37:46.993Z,25.37
2019-02-28T08:40:17.268Z,26.07
2019-02-28T08:42:45.970Z,25.07
2019-02-28T08:45:14.956Z,24.07
2019-02-28T08:47:43.683Z,26.80
2019-02-28T08:50:18.910Z,29.57
2019-02-28T08:52:48.364Z,28.70
2019-02-28T08:55:28.406Z,28.87
2019-02-28T08:57:54.727Z,30.13
2019-02-28T09:00:31.109Z,30.33
2019-02-28T09:02:58.358Z,31.20
2019-02-28T09:05:29.923Z,30.70
2019-02-28T09:07:58.551Z,31.37
2019-02-28T09:10:28.130Z,27.73
2019-02-28T09:12:56.991Z,29.30
2019-02-28T09:15:30.080Z,28.67
2019-02-28T09:17:59.448Z,21.80
2019-02-28T09:20:27.846Z,23.77
2019-02-28T09:23:01.551Z,20.97
2019-02-28T09:25:28.820Z,24.07
2019-02-28T09:27:57.433Z,23.77
2019-02-28T09:30:37.610Z,23.70
2019-02-28T09:33:06.380Z,23.87
2019-02-28T09:35:35.021Z,21.63
2019-02-28T09:38:07.655Z,21.60
2019-02-28T09:40:34.320Z,22.00
2019-02-28T09:43:04.223Z,22.77
2019-02-28T09:45:33.010Z,24.10
2019-02-28T09:48:02.327Z,24.03
2019-02-28T09:50:33.056Z,24.23
2019-02-28T09:53:01.824Z,23.07
2019-02-28T09:55:34.137Z,23.83
2019-02-28T09:58:01.060Z,24.17
2019-02-28T10:00:30.630Z,23.47
2019-02-28T10:02:59.335Z,23.10
2019-02-28T10:05:27.917Z,22.37
2019-02-28T10:08:01.474Z,25.17
2019-02-28T10:10:26.910Z,23.73
2019-02-28T10:12:56.864Z,20.03
2019-02-28T10:15:27.102Z,22.43
2019-02-28T10:17:55.758Z,23.90
2019-02-28T10:20:27.219Z,23.63
2019-02-28T10:22:56.277Z,25.47
2019-02-28T10:25:25.019Z,30.70
2019-02-28T10:27:54.675Z,28.80
2019-02-28T10:30:31.131Z,28.97
2019-02-28T10:32:54.323Z,26.90
2019-02-28T10:35:22.933Z,30.13
2019-02-28T10:37:57.435Z,30.87
2019-02-28T10:40:23.130Z,31.17
2019-02-28T10:42:51.968Z,31.03
2019-02-28T10:45:21.421Z,33.13
2019-02-28T10:47:49.950Z,33.67
2019-02-28T10:50:20.092Z,34.00
2019-02-28T10:52:48.437Z,34.10
2019-02-28T10:55:19.460Z,35.10
2019-02-28T10:57:47.154Z,39.60
2019-02-28T11:00:20.214Z,38.03
2019-02-28T11:02:50.415Z,38.47
2019-02-28T11:05:21.362Z,37.83
2019-02-28T11:07:50.009Z,37.30
2019-02-28T11:10:18.948Z,39.23
2019-02-28T11:12:47.438Z,35.63
2019-02-28T11:15:17.609Z,37.17
2019-02-28T11:17:46.050Z,37.43
2019-02-28T11:20:21.866Z,37.90
2019-02-28T11:22:44.578Z,38.27
2019-02-28T11:25:14.532Z,38.08
2019-02-28T11:27:42.941Z,35.50
2019-02-28T11:32:56.032Z,38.70
2019-02-28T11:35:24.570Z,39.43
2019-02-28T11:37:53.037Z,40.33
2019-02-28T11:40:22.827Z,40.83
2019-02-28T11:42:51.337Z,40.12
2019-02-28T11:45:22.038Z,42.03
2019-02-28T11:47:52.727Z,42.33
2019-02-28T11:50:21.181Z,41.53
2019-02-28T11:52:49.705Z,46.68
2019-02-28T11:55:20.409Z,44.90
2019-02-28T11:57:48.596Z,45.97
2019-02-28T12:00:21.464Z,44.60
2019-02-28T12:02:53.248Z,45.57
2019-02-28T12:05:20.044Z,47.77
2019-02-28T12:07:48.295Z,48.13
2019-02-28T12:10:17.400Z,50.70
2019-02-28T12:12:45.823Z,46.50
2019-02-28T12:15:14.870Z,44.27
2019-02-28T12:17:43.228Z,46.63
2019-02-28T12:20:12.138Z,46.60
2019-02-28T12:22:44.038Z,47.40
2019-02-28T12:25:11.530Z,44.90
2019-02-28T12:27:40.003Z,47.63
2019-02-28T12:30:10.416Z,43.30
2019-02-28T12:32:40.240Z,42.90
2019-02-28T12:35:09.058Z,47.10
2019-02-28T12:37:37.637Z,47.47
2019-02-28T12:40:07.364Z,48.73
2019-02-28T12:42:37.544Z,50.03
2019-02-28T12:45:07.720Z,49.60
2019-02-28T12:47:38.635Z,50.47
2019-02-28T12:50:07.827Z,49.97
2019-02-28T12:52:36.461Z,48.43
2019-02-28T12:55:05.271Z,51.40
2019-02-28T12:57:33.744Z,52.43
2019-02-28T13:00:02.383Z,50.57
2019-02-28T13:02:30.639Z,51.60
2019-02-28T13:04:59.189Z,44.37
2019-02-28T13:07:30.470Z,50.27
2019-02-28T13:09:57.869Z,52.87
2019-02-28T13:12:26.119Z,51.37
2019-02-28T13:14:54.855Z,52.47
2019-02-28T13:17:23.596Z,53.47
2019-02-28T13:19:53.155Z,51.67
2019-02-28T13:22:23.524Z,56.33
2019-02-28T13:24:52.576Z,54.80
2019-02-28T13:27:21.138Z,54.90
2019-02-28T13:29:53.271Z,54.67
2019-02-28T13:32:22.447Z,50.00
2019-02-28T13:34:50.792Z,54.83
2019-02-28T13:37:19.334Z,53.03
2019-02-28T13:39:47.810Z,54.60
2019-02-28T13:42:16.251Z,56.53
2019-02-28T13:44:51.627Z,59.38
2019-02-28T13:47:22.240Z,56.10
2019-02-28T13:49:50.723Z,53.47
2019-02-28T13:52:20.860Z,54.93
2019-02-28T13:54:57.115Z,55.23
2019-02-28T13:57:32.744Z,59.98
2019-02-28T14:00:09.045Z,58.30
2019-02-28T14:02:44.025Z,55.70
2019-02-28T14:05:14.618Z,57.83
2019-02-28T14:07:43.864Z,56.33
2019-02-28T14:10:12.829Z,56.47
2019-02-28T14:12:41.959Z,54.23
2019-02-28T14:15:15.440Z,50.00
2019-02-28T14:17:43.227Z,56.17
2019-02-28T14:20:13.416Z,54.63
2019-02-28T14:22:45.832Z,54.57
2019-02-28T14:25:15.705Z,54.10
2019-02-28T14:27:44.944Z,51.93
2019-02-28T14:30:15.765Z,60.52
2019-02-28T14:32:46.484Z,54.93
2019-02-28T14:35:16.245Z,57.17
2019-02-28T14:40:28.236Z,59.95
2019-02-28T14:42:58.292Z,60.43
2019-02-28T14:45:28.253Z,56.33
2019-02-28T14:47:57.516Z,56.30
2019-02-28T14:50:27.572Z,55.40
2019-02-28T14:52:56.786Z,55.13
2019-02-28T14:55:32.251Z,55.73
2019-02-28T14:58:00.659Z,54.50
2019-02-28T15:00:30.091Z,55.37
2019-02-28T15:03:03.020Z,57.07
2019-02-28T15:05:30.996Z,55.73
2019-02-28T15:08:01.126Z,56.67
2019-02-28T15:10:30.394Z,58.13
2019-02-28T15:12:59.669Z,55.63
2019-02-28T15:15:28.534Z,52.50
2019-02-28T15:17:58.512Z,57.73
2019-02-28T15:20:31.512Z,57.40
2019-02-28T15:22:59.595Z,57.27
2019-02-28T15:25:29.240Z,54.60
2019-02-28T15:28:03.710Z,55.10
2019-02-28T15:30:42.771Z,54.27
2019-02-28T15:33:14.651Z,54.83
2019-02-28T15:35:46.503Z,52.87
2019-02-28T15:38:15.993Z,57.53
2019-02-28T15:40:44.951Z,56.67
2019-02-28T15:43:16.975Z,53.17
2019-02-28T15:45:45.711Z,55.07
2019-02-28T15:48:15.126Z,55.10
2019-02-28T15:50:48.376Z,55.40
2019-02-28T15:53:16.766Z,54.80
2019-02-28T15:55:46.517Z,56.27
2019-02-28T15:58:16.812Z,54.83
2019-02-28T16:00:46.519Z,54.47
2019-02-28T16:03:16.742Z,55.03
2019-02-28T16:05:47.009Z,54.93
2019-02-28T16:08:17.343Z,55.73
2019-02-28T16:10:53.161Z,53.70
2019-02-28T16:13:19.118Z,51.63
2019-02-28T16:15:50.221Z,52.60
2019-02-28T16:18:20.498Z,53.73
2019-02-28T16:20:49.811Z,53.70
2019-02-28T16:23:19.592Z,52.87
2019-02-28T16:25:50.199Z,53.27
2019-02-28T16:28:19.914Z,53.83
2019-02-28T16:30:49.610Z,57.40
2019-02-28T16:33:20.946Z,52.33
2019-02-28T16:35:51.404Z,53.10
2019-02-28T16:38:21.021Z,54.43
2019-02-28T16:40:50.886Z,53.97
2019-02-28T16:43:20.838Z,55.93
2019-02-28T16:45:51.390Z,56.83
2019-02-28T16:48:21.193Z,55.63
2019-02-28T16:50:53.804Z,53.90
2019-02-28T16:53:23.794Z,54.90
2019-02-28T16:55:53.443Z,57.27
2019-02-28T16:58:23.083Z,58.30
2019-02-28T17:00:52.647Z,57.40
2019-02-28T17:03:22.098Z,59.13
2019-02-28T17:05:51.861Z,58.30
2019-02-28T17:08:21.083Z,57.37
2019-02-28T17:10:51.336Z,59.53
2019-02-28T17:13:30.131Z,58.67
2019-02-28T17:16:25.264Z,55.67
2019-02-28T17:18:56.735Z,57.80
2019-02-28T17:21:27.871Z,59.00
2019-02-28T17:23:58.434Z,60.33
2019-02-28T17:26:46.292Z,56.87
2019-02-28T17:29:25.106Z,57.53
2019-02-28T17:31:55.472Z,58.83
2019-02-28T17:34:25.702Z,60.07
2019-02-28T17:36:55.671Z,67.97
2019-02-28T17:39:26.279Z,59.43
2019-02-28T17:41:57.564Z,61.70
2019-02-28T17:44:46.603Z,64.93
2019-02-28T17:47:25.694Z,65.20
2019-02-28T17:50:16.341Z,67.47
2019-02-28T17:52:48.461Z,67.30
2019-02-28T17:55:35.532Z,66.50
2019-02-28T17:58:13.780Z,61.93
2019-02-28T18:00:56.390Z,57.93
2019-02-28T18:03:35.792Z,62.13
2019-02-28T18:06:11.972Z,60.13
2019-02-28T18:09:05.892Z,56.13
2019-02-28T18:11:46.123Z,69.10
2019-02-28T18:14:37.518Z,74.67
2019-02-28T18:17:18.894Z,74.27
2019-02-28T18:19:59.160Z,74.63
2019-02-28T18:22:35.548Z,72.53
2019-02-28T18:25:33.912Z,88.90
2019-02-28T18:28:18.938Z,81.10
2019-02-28T18:31:07.513Z,74.93
2019-02-28T18:33:38.257Z,75.40
2019-02-28T18:36:09.796Z,73.90
2019-02-28T18:38:39.923Z,84.77
2019-02-28T18:41:10.180Z,82.83
2019-02-28T18:43:40.539Z,83.80
2019-02-28T18:46:11.254Z,86.27
2019-02-28T18:48:41.601Z,84.27
2019-02-28T18:51:12.385Z,98.13
2019-02-28T18:53:43.239Z,97.67
2019-02-28T18:56:14.023Z,81.57
2019-02-28T18:58:44.086Z,81.63
2019-02-28T19:01:14.662Z,77.67
2019-02-28T19:03:45.006Z,79.27
2019-02-28T19:06:15.436Z,75.53
2019-02-28T19:08:46.307Z,73.77
2019-02-28T19:11:17.120Z,70.43
2019-02-28T19:13:47.785Z,69.17
2019-02-28T19:16:18.745Z,64.87
2019-02-28T19:18:48.543Z,59.13
2019-02-28T19:21:18.625Z,57.13
2019-02-28T19:23:49.021Z,56.33
2019-02-28T19:26:19.869Z,54.43
2019-02-28T19:28:50.860Z,55.13
2019-02-28T19:31:21.070Z,57.47
2019-02-28T19:33:51.915Z,62.43
2019-02-28T19:36:22.713Z,58.60
2019-02-28T19:38:58.311Z,56.00
2019-02-28T19:41:36.488Z,52.50
2019-02-28T19:44:10.245Z,52.17
2019-02-28T19:46:46.159Z,52.63
2019-02-28T19:49:16.630Z,49.77
2019-02-28T19:51:47.014Z,49.17
2019-02-28T19:54:17.881Z,49.00
2019-02-28T19:56:48.126Z,48.73
2019-02-28T19:59:17.943Z,48.83
2019-02-28T20:01:47.832Z,47.30
2019-02-28T20:04:18.211Z,45.27
2019-02-28T20:06:47.892Z,43.60
2019-02-28T20:09:17.846Z,44.00
2019-02-28T20:11:47.480Z,42.17
2019-02-28T20:14:17.323Z,43.00
2019-02-28T20:16:46.870Z,40.83
2019-02-28T20:19:17.263Z,41.97
2019-02-28T20:21:47.492Z,42.07
2019-02-28T20:24:17.454Z,43.03
2019-02-28T20:26:47.809Z,43.93
2019-02-28T20:29:19.050Z,40.20
2019-02-28T20:31:50.162Z,37.10
2019-02-28T20:34:20.181Z,36.40
2019-02-28T20:36:49.990Z,35.27
2019-02-28T20:39:19.892Z,36.73
2019-02-28T20:41:50.433Z,37.00
2019-02-28T20:44:20.120Z,34.53
2019-02-28T20:47:10.558Z,34.63
2019-02-28T20:49:40.205Z,35.20
2019-02-28T20:52:09.873Z,35.70
2019-02-28T20:54:40.709Z,35.17
2019-02-28T20:57:10.692Z,34.83
2019-02-28T20:59:40.445Z,33.97
2019-02-28T21:02:10.003Z,35.57
2019-02-28T21:04:39.601Z,34.13
2019-02-28T21:07:09.716Z,35.60
2019-02-28T21:09:45.003Z,34.43
2019-02-28T21:12:11.300Z,35.07
2019-02-28T21:14:41.247Z,40.87
2019-02-28T21:17:11.058Z,43.63
2019-02-28T21:19:40.787Z,40.33
2019-02-28T21:22:10.356Z,37.17
2019-02-28T21:24:39.877Z,35.90
2019-02-28T21:27:09.392Z,35.53
2019-02-28T21:29:39.919Z,34.13
2019-02-28T21:32:09.954Z,33.50
2019-02-28T21:34:39.851Z,32.30
2019-02-28T21:37:10.692Z,30.67
2019-02-28T21:39:40.514Z,30.50
2019-02-28T21:42:10.310Z,30.37
2019-02-28T21:44:40.397Z,29.80
2019-02-28T21:47:10.015Z,29.77
2019-02-28T21:49:40.339Z,29.00
2019-02-28T21:52:10.505Z,27.67
2019-02-28T21:54:40.497Z,28.37
2019-02-28T21:57:09.581Z,28.00
2019-02-28T21:59:39.133Z,27.03
2019-02-28T22:02:09.113Z,26.53
2019-02-28T22:04:38.984Z,26.37
2019-02-28T22:07:09.200Z,25.83
2019-02-28T22:09:38.852Z,25.57
2019-02-28T22:12:08.422Z,24.93
2019-02-28T22:14:38.173Z,24.90
2019-02-28T22:17:07.960Z,25.00
2019-02-28T22:19:37.286Z,24.83
2019-02-28T22:22:07.063Z,24.60
2019-02-28T22:24:36.388Z,24.93
2019-02-28T22:27:05.891Z,24.30
2019-02-28T22:29:35.893Z,24.77
2019-02-28T22:32:23.928Z,24.23
2019-02-28T22:35:01.016Z,24.53
2019-02-28T22:37:31.105Z,25.77
2019-02-28T22:40:01.229Z,24.47
2019-02-28T22:42:30.740Z,25.27
2019-02-28T22:45:00.445Z,24.67
2019-02-28T22:47:30.146Z,24.27
2019-02-28T22:50:00.102Z,24.93
2019-02-28T22:52:30.444Z,23.97
2019-02-28T22:54:59.919Z,23.97
2019-02-28T22:57:30.748Z,23.40
2019-02-28T22:59:59.966Z,23.97
2019-02-28T23:02:30.305Z,24.33
2019-02-28T23:05:00.465Z,25.67
2019-02-28T23:07:30.255Z,25.10
2019-02-28T23:09:59.825Z,24.37
2019-02-28T23:12:29.316Z,25.63
2019-02-28T23:14:59.244Z,25.00
2019-02-28T23:17:29.101Z,25.23
2019-02-28T23:19:58.493Z,25.63
2019-02-28T23:22:28.350Z,24.83
2019-02-28T23:24:58.734Z,25.50
2019-02-28T23:27:28.893Z,25.53
2019-02-28T23:30:13.946Z,26.03
2019-02-28T23:32:45.113Z,26.20
2019-02-28T23:35:19.046Z,26.33
2019-02-28T23:37:48.607Z,26.23
2019-02-28T23:40:18.441Z,26.50
2019-02-28T23:42:47.914Z,25.93
2019-02-28T23:45:17.470Z,25.43
2019-02-28T23:47:47.038Z,25.30
2019-02-28T23:50:16.693Z,26.63
2019-02-28T23:52:45.765Z,24.47
2019-02-28T23:55:15.466Z,26.40
2019-02-28T23:57:45.064Z,25.63
